createdAt,value
2019-02-14T00:00:25.801Z,13.07
2019-02-14T00:02:53.382Z,11.93
2019-02-14T00:05:20.881Z,11.67
2019-02-14T00:07:48.481Z,12.37
2019-02-14T00:10:16.074Z,13.03
2019-02-14T00:12:43.689Z,11.10
2019-02-14T00:15:11.389Z,11.40
2019-02-14T00:17:38.954Z,12.63
2019-02-14T00:20:07.181Z,12.00
2019-02-14T00:22:34.850Z,11.93
2019-02-14T00:25:02.416Z,11.23
2019-02-14T00:27:30.089Z,11.17
2019-02-14T00:29:57.649Z,11.50
2019-02-14T00:32:25.301Z,11.60
2019-02-14T00:34:52.809Z,10.63
2019-02-14T00:37:20.381Z,10.50
2019-02-14T00:39:47.942Z,10.23
2019-02-14T00:42:15.542Z,11.30
2019-02-14T00:44:43.021Z,10.10
2019-02-14T00:47:10.630Z,11.67
2019-02-14T00:49:38.181Z,11.20
2019-02-14T00:52:05.721Z,11.47
2019-02-14T00:54:33.341Z,10.57
2019-02-14T00:57:00.929Z,11.47
2019-02-14T00:59:28.581Z,13.00
2019-02-14T01:01:56.621Z,12.33
2019-02-14T01:04:24.161Z,12.17
2019-02-14T01:06:51.729Z,10.63
2019-02-14T01:09:19.321Z,11.63
2019-02-14T01:11:46.873Z,11.57
2019-02-14T01:14:14.682Z,10.70
2019-02-14T01:16:42.252Z,11.37
2019-02-14T01:19:09.824Z,11.10
2019-02-14T01:21:37.321Z,12.53
2019-02-14T01:24:04.923Z,10.87
2019-02-14T01:26:32.421Z,10.37
2019-02-14T01:29:00.081Z,10.97
2019-02-14T01:31:27.620Z,11.20
2019-02-14T01:33:55.229Z,9.87
2019-02-14T01:36:22.781Z,8.97
2019-02-14T01:38:50.381Z,10.50
2019-02-14T01:41:17.961Z,11.30
2019-02-14T01:43:45.520Z,10.43
2019-02-14T01:46:13.162Z,10.83
2019-02-14T01:48:40.829Z,10.80
2019-02-14T01:51:08.349Z,10.93
2019-02-14T01:53:35.949Z,11.23
2019-02-14T01:56:03.870Z,9.93
2019-02-14T01:58:31.411Z,11.13
2019-02-14T02:00:59.093Z,10.80
2019-02-14T02:03:26.643Z,9.40
2019-02-14T02:05:54.371Z,11.00
2019-02-14T02:08:22.091Z,9.53
2019-02-14T02:10:49.686Z,8.53
2019-02-14T02:13:17.384Z,8.67
2019-02-14T02:15:45.331Z,9.67
2019-02-14T02:18:13.043Z,9.57
2019-02-14T02:20:40.885Z,9.13
2019-02-14T02:23:08.412Z,9.00
2019-02-14T02:25:35.932Z,8.13
2019-02-14T02:28:03.672Z,9.43
2019-02-14T02:30:31.293Z,8.60
2019-02-14T02:32:58.905Z,8.70
2019-02-14T02:35:26.563Z,8.07
2019-02-14T02:37:56.603Z,9.00
2019-02-14T02:40:24.203Z,9.37
2019-02-14T02:42:52.405Z,8.47
2019-02-14T02:45:20.001Z,8.80
2019-02-14T02:47:47.550Z,7.93
2019-02-14T02:50:15.089Z,7.43
2019-02-14T02:52:43.772Z,8.40
2019-02-14T02:55:11.380Z,8.80
2019-02-14T02:57:38.965Z,8.63
2019-02-14T03:00:10.721Z,8.70
2019-02-14T03:02:38.269Z,8.77
2019-02-14T03:05:06.563Z,8.13
2019-02-14T03:07:34.063Z,7.97
2019-02-14T03:10:01.631Z,8.43
2019-02-14T03:12:29.263Z,8.60
2019-02-14T03:14:57.881Z,9.17
2019-02-14T03:17:25.421Z,8.07
2019-02-14T03:19:53.043Z,8.00
2019-02-14T03:22:20.569Z,7.80
2019-02-14T03:24:48.260Z,9.13
2019-02-14T03:27:15.821Z,9.03
2019-02-14T03:29:43.401Z,9.90
2019-02-14T03:32:10.983Z,9.73
2019-02-14T03:34:38.569Z,10.37
2019-02-14T03:37:06.131Z,9.90
2019-02-14T03:39:34.741Z,9.83
2019-02-14T03:42:02.302Z,10.30
2019-02-14T03:44:29.933Z,9.63
2019-02-14T03:46:57.521Z,10.10
2019-02-14T03:49:25.201Z,9.23
2019-02-14T03:51:52.761Z,9.90
2019-02-14T03:54:20.470Z,9.33
2019-02-14T03:56:48.089Z,9.20
2019-02-14T03:59:15.624Z,9.00
2019-02-14T04:01:43.169Z,10.23
2019-02-14T04:04:10.701Z,9.67
2019-02-14T04:06:38.303Z,9.90
2019-02-14T04:09:07.249Z,9.90
2019-02-14T04:11:34.870Z,9.80
2019-02-14T04:14:02.530Z,10.80
2019-02-14T04:16:30.189Z,10.27
2019-02-14T04:18:57.748Z,11.80
2019-02-14T04:21:25.381Z,10.57
2019-02-14T04:23:52.969Z,10.67
2019-02-14T04:26:20.552Z,10.23
2019-02-14T04:28:48.081Z,10.07
2019-02-14T04:31:15.669Z,10.00
2019-02-14T04:33:43.181Z,10.33
2019-02-14T04:36:10.849Z,9.37
2019-02-14T04:38:38.381Z,9.57
2019-02-14T04:41:05.968Z,9.83
2019-02-14T04:43:33.581Z,9.93
2019-02-14T04:46:01.169Z,10.30
2019-02-14T04:48:28.749Z,10.27
2019-02-14T04:50:56.371Z,10.23
2019-02-14T04:53:23.925Z,9.53
2019-02-14T04:55:51.469Z,8.70
2019-02-14T04:58:19.161Z,7.83
2019-02-14T05:00:46.670Z,8.57
2019-02-14T05:03:14.289Z,9.10
2019-02-14T05:05:41.829Z,6.80
2019-02-14T05:08:09.452Z,7.10
2019-02-14T05:10:37.003Z,7.33
2019-02-14T05:13:04.601Z,6.37
2019-02-14T05:15:32.402Z,5.30
2019-02-14T05:17:59.949Z,7.40
2019-02-14T05:20:27.461Z,6.30
2019-02-14T05:22:55.030Z,9.13
2019-02-14T05:25:22.615Z,7.30
2019-02-14T05:27:50.141Z,8.57
2019-02-14T05:30:17.689Z,8.33
2019-02-14T05:32:45.309Z,9.33
2019-02-14T05:35:12.973Z,9.07
2019-02-14T05:37:40.416Z,10.30
2019-02-14T05:40:08.249Z,10.00
2019-02-14T05:42:35.683Z,9.80
2019-02-14T05:45:03.218Z,9.97
2019-02-14T05:47:30.672Z,10.40
2019-02-14T05:49:58.023Z,10.03
2019-02-14T05:52:25.462Z,10.37
2019-02-14T05:54:52.831Z,11.83
2019-02-14T05:57:20.273Z,10.37
2019-02-14T05:59:47.654Z,10.83
2019-02-14T06:02:16.964Z,10.60
2019-02-14T06:04:44.331Z,10.00
2019-02-14T06:07:17.774Z,10.93
2019-02-14T06:46:39.001Z,10.93
2019-02-14T20:22:23.648Z,6.50
2019-02-14T20:33:03.888Z,7.13
2019-02-14T20:42:37.668Z,6.43
2019-02-14T20:45:06.327Z,7.00
2019-02-14T20:47:43.788Z,7.23
2019-02-14T20:50:12.134Z,6.97
2019-02-14T20:52:43.937Z,7.47
2019-02-14T20:55:20.761Z,7.67
2019-02-14T20:57:48.689Z,7.60
2019-02-14T21:00:29.946Z,6.90
2019-02-14T21:02:58.049Z,7.43
2019-02-14T21:05:26.099Z,6.87
2019-02-14T21:07:54.104Z,7.50
2019-02-14T21:10:22.338Z,7.10
2019-02-14T21:12:50.824Z,7.17
2019-02-14T21:15:18.882Z,7.60
2019-02-14T21:17:46.881Z,7.23
2019-02-14T21:20:14.991Z,7.17
2019-02-14T21:22:43.291Z,7.37
2019-02-14T21:25:22.073Z,7.53
2019-02-14T21:27:54.223Z,7.53
2019-02-14T21:30:25.118Z,8.00
2019-02-14T21:33:11.995Z,7.70
2019-02-14T21:35:42.786Z,7.60
2019-02-14T21:38:10.775Z,7.70
2019-02-14T21:40:38.545Z,7.90
2019-02-14T21:43:06.450Z,7.47
2019-02-14T21:45:34.530Z,7.80
2019-02-14T21:48:02.821Z,7.87
2019-02-14T21:50:30.373Z,7.83
2019-02-14T21:52:58.197Z,7.53
2019-02-14T21:55:31.169Z,7.70
2019-02-14T21:57:58.690Z,8.00
2019-02-14T22:00:26.317Z,7.00
2019-02-14T22:02:53.889Z,7.43
2019-02-14T22:05:25.253Z,7.67
2019-02-14T22:07:50.802Z,8.13
2019-02-14T22:10:18.201Z,7.80
2019-02-14T22:12:45.697Z,6.97
2019-02-14T22:15:14.306Z,7.60
2019-02-14T22:17:42.242Z,7.93
2019-02-14T22:20:09.771Z,8.13
2019-02-14T22:22:37.231Z,7.37
2019-02-14T22:25:04.904Z,6.70
2019-02-14T22:27:32.356Z,6.70
2019-02-14T22:29:59.851Z,6.17
2019-02-14T22:32:27.344Z,6.30
2019-02-14T22:34:54.734Z,6.47
2019-02-14T22:37:22.181Z,6.50
2019-02-14T22:39:49.555Z,6.27
2019-02-14T22:42:16.950Z,6.30
2019-02-14T22:44:44.407Z,6.90
2019-02-14T22:47:11.816Z,6.73
2019-02-14T22:49:39.240Z,6.20
2019-02-14T22:52:06.630Z,6.97
2019-02-14T22:54:34.061Z,6.73
2019-02-14T22:57:01.425Z,7.13
2019-02-14T22:59:28.895Z,6.87
2019-02-14T23:01:56.309Z,6.40
2019-02-14T23:04:23.873Z,7.17
2019-02-14T23:06:51.255Z,6.67
2019-02-14T23:09:18.806Z,7.10
2019-02-14T23:11:46.186Z,7.13
2019-02-14T23:14:13.636Z,7.43
2019-02-14T23:16:41.101Z,6.73
2019-02-14T23:19:08.631Z,6.70
2019-02-14T23:21:36.046Z,6.63
2019-02-14T23:24:03.500Z,7.03
2019-02-14T23:26:30.893Z,6.10
2019-02-14T23:28:58.772Z,6.80
2019-02-14T23:31:26.200Z,6.60
2019-02-14T23:33:53.616Z,6.67
2019-02-14T23:36:21.023Z,6.77
2019-02-14T23:38:48.475Z,6.27
2019-02-14T23:41:15.871Z,5.40
2019-02-14T23:43:43.400Z,5.40
2019-02-14T23:46:11.306Z,5.47
2019-02-14T23:48:39.644Z,5.23
2019-02-14T23:51:07.129Z,5.17
2019-02-14T23:53:34.705Z,5.27
2019-02-14T23:56:02.153Z,4.87
2019-02-14T23:58:29.690Z,5.53
